sensor_id;sensor_type;location;lat;lon;timestamp;P1;durP1;ratioP1;P2;durP2;ratioP2
37787;SDS011;23627;53.302;-6.362;2024-01-10T00:01:33;7.60;;;1.50;;
37787;SDS011;23627;53.302;-6.362;2024-01-10T00:03:59;2.80;;;1.00;;
37787;SDS011;23627;53.302;-6.362;2024-01-10T00:06:25;4.55;;;1.40;;
37787;SDS011;23627;53.302;-6.362;2024-01-10T00:08:51;5.78;;;1.55;;
37787;SDS011;23627;53.302;-6.362;2024-01-10T00:11:17;3.83;;;1.23;;
37787;SDS011;23627;53.302;-6.362;2024-01-10T00:13:42;4.20;;;1.50;;
37787;SDS011;23627;53.302;-6.362;2024-01-10T00:16:08;5.97;;;1.40;;
37787;SDS011;23627;53.302;-6.362;2024-01-10T00:18:36;4.10;;;1.45;;
37787;SDS011;23627;53.302;-6.362;2024-01-10T00:21:02;5.55;;;1.33;;
37787;SDS011;23627;53.302;-6.362;2024-01-10T00:23:28;5.90;;;1.30;;
37787;SDS011;23627;53.302;-6.362;2024-01-10T00:25:53;4.32;;;1.40;;
37787;SDS011;23627;53.302;-6.362;2024-01-10T00:28:19;2.83;;;1.10;;
37787;SDS011;23627;53.302;-6.362;2024-01-10T00:30:45;6.53;;;1.35;;
37787;SDS011;23627;53.302;-6.362;2024-01-10T00:33:14;6.15;;;1.48;;
37787;SDS011;23627;53.302;-6.362;2024-01-10T00:35:40;5.82;;;1.50;;
37787;SDS011;23627;53.302;-6.362;2024-01-10T00:38:06;7.15;;;1.40;;
37787;SDS011;23627;53.302;-6.362;2024-01-10T00:40:32;6.53;;;1.60;;
37787;SDS011;23627;53.302;-6.362;2024-01-10T00:43:01;5.82;;;1.30;;
37787;SDS011;23627;53.302;-6.362;2024-01-10T00:45:27;6.10;;;1.60;;
37787;SDS011;23627;53.302;-6.362;2024-01-10T00:47:52;5.65;;;1.27;;
37787;SDS011;23627;53.302;-6.362;2024-01-10T00:50:18;8.07;;;1.52;;
37787;SDS011;23627;53.302;-6.362;2024-01-10T00:52:44;6.35;;;1.65;;
37787;SDS011;23627;53.302;-6.362;2024-01-10T00:55:11;7.25;;;1.10;;
37787;SDS011;23627;53.302;-6.362;2024-01-10T00:57:37;3.42;;;1.10;;
37787;SDS011;23627;53.302;-6.362;2024-01-10T01:00:06;3.63;;;1.20;;
37787;SDS011;23627;53.302;-6.362;2024-01-10T01:02:32;3.45;;;1.27;;
37787;SDS011;23627;53.302;-6.362;2024-01-10T01:04:58;7.28;;;1.40;;
37787;SDS011;23627;53.302;-6.362;2024-01-10T01:07:24;7.38;;;1.38;;
37787;SDS011;23627;53.302;-6.362;2024-01-10T01:09:51;5.43;;;1.05;;
37787;SDS011;23627;53.302;-6.362;2024-01-10T01:12:17;6.35;;;1.75;;
37787;SDS011;23627;53.302;-6.362;2024-01-10T01:14:42;6.38;;;1.60;;
37787;SDS011;23627;53.302;-6.362;2024-01-10T01:17:08;4.30;;;1.00;;
37787;SDS011;23627;53.302;-6.362;2024-01-10T01:19:34;6.90;;;1.20;;
37787;SDS011;23627;53.302;-6.362;2024-01-10T01:22:00;4.90;;;1.20;;
37787;SDS011;23627;53.302;-6.362;2024-01-10T01:24:26;3.72;;;0.95;;
37787;SDS011;23627;53.302;-6.362;2024-01-10T01:26:51;3.78;;;1.00;;
37787;SDS011;23627;53.302;-6.362;2024-01-10T01:29:17;2.90;;;1.05;;
37787;SDS011;23627;53.302;-6.362;2024-01-10T01:31:44;5.28;;;1.10;;
37787;SDS011;23627;53.302;-6.362;2024-01-10T01:34:09;6.18;;;1.20;;
37787;SDS011;23627;53.302;-6.362;2024-01-10T01:36:35;2.85;;;0.85;;
37787;SDS011;23627;53.302;-6.362;2024-01-10T01:39:01;2.33;;;0.80;;
37787;SDS011;23627;53.302;-6.362;2024-01-10T01:41:26;6.57;;;1.23;;
37787;SDS011;23627;53.302;-6.362;2024-01-10T01:43:52;3.70;;;1.10;;
37787;SDS011;23627;53.302;-6.362;2024-01-10T01:46:18;8.05;;;1.58;;
37787;SDS011;23627;53.302;-6.362;2024-01-10T01:48:44;5.78;;;0.93;;
37787;SDS011;23627;53.302;-6.362;2024-01-10T01:51:10;4.40;;;1.02;;
37787;SDS011;23627;53.302;-6.362;2024-01-10T01:53:38;5.25;;;1.13;;
37787;SDS011;23627;53.302;-6.362;2024-01-10T01:56:08;2.42;;;1.10;;
37787;SDS011;23627;53.302;-6.362;2024-01-10T01:58:36;3.05;;;0.88;;
37787;SDS011;23627;53.302;-6.362;2024-01-10T02:01:02;3.40;;;1.20;;
37787;SDS011;23627;53.302;-6.362;2024-01-10T02:03:33;4.30;;;1.13;;
37787;SDS011;23627;53.302;-6.362;2024-01-10T02:05:59;2.92;;;0.90;;
37787;SDS011;23627;53.302;-6.362;2024-01-10T02:08:28;6.63;;;1.20;;
37787;SDS011;23627;53.302;-6.362;2024-01-10T02:10:56;2.60;;;1.00;;
37787;SDS011;23627;53.302;-6.362;2024-01-10T02:13:22;3.30;;;0.93;;
37787;SDS011;23627;53.302;-6.362;2024-01-10T02:15:48;4.80;;;1.10;;
37787;SDS011;23627;53.302;-6.362;2024-01-10T02:18:14;4.97;;;1.13;;
37787;SDS011;23627;53.302;-6.362;2024-01-10T02:20:42;4.57;;;1.33;;
37787;SDS011;23627;53.302;-6.362;2024-01-10T02:23:12;5.47;;;1.05;;
37787;SDS011;23627;53.302;-6.362;2024-01-10T02:25:38;5.70;;;1.02;;
37787;SDS011;23627;53.302;-6.362;2024-01-10T02:28:07;5.22;;;1.38;;
37787;SDS011;23627;53.302;-6.362;2024-01-10T02:30:34;3.20;;;1.00;;
37787;SDS011;23627;53.302;-6.362;2024-01-10T02:33:00;3.50;;;1.02;;
37787;SDS011;23627;53.302;-6.362;2024-01-10T02:35:26;5.43;;;1.27;;
37787;SDS011;23627;53.302;-6.362;2024-01-10T02:37:52;5.38;;;1.20;;
37787;SDS011;23627;53.302;-6.362;2024-01-10T02:40:19;4.72;;;1.08;;
37787;SDS011;23627;53.302;-6.362;2024-01-10T02:42:48;3.70;;;1.00;;
37787;SDS011;23627;53.302;-6.362;2024-01-10T02:45:13;3.78;;;1.05;;
37787;SDS011;23627;53.302;-6.362;2024-01-10T02:47:39;5.68;;;1.00;;
37787;SDS011;23627;53.302;-6.362;2024-01-10T02:50:05;3.42;;;0.75;;
37787;SDS011;23627;53.302;-6.362;2024-01-10T02:52:31;3.15;;;0.95;;
37787;SDS011;23627;53.302;-6.362;2024-01-10T02:54:57;6.07;;;1.20;;
37787;SDS011;23627;53.302;-6.362;2024-01-10T02:57:23;4.97;;;0.90;;
37787;SDS011;23627;53.302;-6.362;2024-01-10T02:59:49;4.35;;;1.08;;
37787;SDS011;23627;53.302;-6.362;2024-01-10T03:02:15;3.42;;;0.82;;
37787;SDS011;23627;53.302;-6.362;2024-01-10T03:04:41;5.22;;;0.90;;
37787;SDS011;23627;53.302;-6.362;2024-01-10T03:07:07;5.35;;;0.85;;
37787;SDS011;23627;53.302;-6.362;2024-01-10T03:09:32;5.50;;;1.00;;
37787;SDS011;23627;53.302;-6.362;2024-01-10T03:11:58;4.00;;;0.75;;
37787;SDS011;23627;53.302;-6.362;2024-01-10T03:14:24;3.75;;;0.90;;
37787;SDS011;23627;53.302;-6.362;2024-01-10T03:16:49;3.88;;;0.90;;
37787;SDS011;23627;53.302;-6.362;2024-01-10T03:19:15;3.83;;;1.08;;
37787;SDS011;23627;53.302;-6.362;2024-01-10T03:21:41;3.67;;;1.08;;
37787;SDS011;23627;53.302;-6.362;2024-01-10T03:24:07;2.22;;;0.77;;
37787;SDS011;23627;53.302;-6.362;2024-01-10T03:26:33;6.90;;;0.93;;
37787;SDS011;23627;53.302;-6.362;2024-01-10T03:28:59;3.45;;;0.90;;
37787;SDS011;23627;53.302;-6.362;2024-01-10T03:31:26;3.85;;;0.80;;
37787;SDS011;23627;53.302;-6.362;2024-01-10T03:33:53;5.28;;;1.15;;
37787;SDS011;23627;53.302;-6.362;2024-01-10T03:36:19;2.97;;;0.80;;
37787;SDS011;23627;53.302;-6.362;2024-01-10T03:38:44;5.57;;;1.08;;
37787;SDS011;23627;53.302;-6.362;2024-01-10T03:41:13;4.63;;;0.85;;
37787;SDS011;23627;53.302;-6.362;2024-01-10T03:43:43;4.18;;;1.50;;
37787;SDS011;23627;53.302;-6.362;2024-01-10T03:46:09;2.65;;;1.00;;
37787;SDS011;23627;53.302;-6.362;2024-01-10T03:48:36;2.55;;;0.70;;
37787;SDS011;23627;53.302;-6.362;2024-01-10T03:51:02;2.70;;;0.77;;
37787;SDS011;23627;53.302;-6.362;2024-01-10T03:53:28;2.63;;;0.80;;
37787;SDS011;23627;53.302;-6.362;2024-01-10T03:55:54;2.30;;;0.70;;
37787;SDS011;23627;53.302;-6.362;2024-01-10T03:58:20;2.67;;;0.80;;
37787;SDS011;23627;53.302;-6.362;2024-01-10T04:00:46;4.05;;;0.90;;
37787;SDS011;23627;53.302;-6.362;2024-01-10T04:03:11;3.13;;;0.88;;
37787;SDS011;23627;53.302;-6.362;2024-01-10T04:05:37;3.85;;;1.00;;
37787;SDS011;23627;53.302;-6.362;2024-01-10T04:08:03;5.80;;;1.08;;
37787;SDS011;23627;53.302;-6.362;2024-01-10T04:10:29;3.70;;;1.05;;
37787;SDS011;23627;53.302;-6.362;2024-01-10T04:12:54;6.30;;;1.33;;
37787;SDS011;23627;53.302;-6.362;2024-01-10T04:15:20;2.60;;;0.82;;
37787;SDS011;23627;53.302;-6.362;2024-01-10T04:17:46;2.97;;;0.73;;
37787;SDS011;23627;53.302;-6.362;2024-01-10T04:20:12;5.00;;;0.65;;
37787;SDS011;23627;53.302;-6.362;2024-01-10T04:22:38;2.35;;;0.93;;
37787;SDS011;23627;53.302;-6.362;2024-01-10T04:25:05;3.33;;;0.70;;
37787;SDS011;23627;53.302;-6.362;2024-01-10T04:27:32;3.45;;;0.60;;
37787;SDS011;23627;53.302;-6.362;2024-01-10T04:29:58;4.70;;;1.23;;
37787;SDS011;23627;53.302;-6.362;2024-01-10T04:32:23;4.45;;;0.70;;
37787;SDS011;23627;53.302;-6.362;2024-01-10T04:34:49;3.22;;;0.82;;
37787;SDS011;23627;53.302;-6.362;2024-01-10T04:37:15;4.57;;;0.80;;
37787;SDS011;23627;53.302;-6.362;2024-01-10T04:39:41;1.73;;;0.57;;
37787;SDS011;23627;53.302;-6.362;2024-01-10T04:42:10;3.42;;;0.60;;
37787;SDS011;23627;53.302;-6.362;2024-01-10T04:44:36;4.00;;;0.77;;
37787;SDS011;23627;53.302;-6.362;2024-01-10T04:47:03;3.67;;;0.80;;
37787;SDS011;23627;53.302;-6.362;2024-01-10T04:49:29;5.35;;;0.80;;
37787;SDS011;23627;53.302;-6.362;2024-01-10T04:51:55;1.95;;;0.57;;
37787;SDS011;23627;53.302;-6.362;2024-01-10T04:54:21;4.50;;;0.73;;
37787;SDS011;23627;53.302;-6.362;2024-01-10T04:56:46;4.78;;;0.70;;
37787;SDS011;23627;53.302;-6.362;2024-01-10T04:59:12;2.95;;;0.60;;
37787;SDS011;23627;53.302;-6.362;2024-01-10T05:01:38;3.78;;;0.63;;
37787;SDS011;23627;53.302;-6.362;2024-01-10T05:04:04;3.33;;;0.60;;
37787;SDS011;23627;53.302;-6.362;2024-01-10T05:06:30;3.58;;;0.60;;
37787;SDS011;23627;53.302;-6.362;2024-01-10T05:08:56;3.42;;;0.65;;
37787;SDS011;23627;53.302;-6.362;2024-01-10T05:11:23;4.72;;;0.70;;
37787;SDS011;23627;53.302;-6.362;2024-01-10T05:13:51;4.43;;;0.77;;
37787;SDS011;23627;53.302;-6.362;2024-01-10T05:16:17;2.22;;;0.60;;
37787;SDS011;23627;53.302;-6.362;2024-01-10T05:18:43;3.05;;;0.80;;
37787;SDS011;23627;53.302;-6.362;2024-01-10T05:21:09;3.70;;;0.80;;
37787;SDS011;23627;53.302;-6.362;2024-01-10T05:23:35;3.65;;;0.52;;
37787;SDS011;23627;53.302;-6.362;2024-01-10T05:26:01;3.38;;;0.93;;
37787;SDS011;23627;53.302;-6.362;2024-01-10T05:28:27;4.63;;;0.70;;
37787;SDS011;23627;53.302;-6.362;2024-01-10T05:30:53;2.75;;;0.80;;
37787;SDS011;23627;53.302;-6.362;2024-01-10T05:33:19;3.97;;;0.70;;
37787;SDS011;23627;53.302;-6.362;2024-01-10T05:35:45;5.00;;;0.77;;
37787;SDS011;23627;53.302;-6.362;2024-01-10T05:38:11;1.92;;;0.50;;
37787;SDS011;23627;53.302;-6.362;2024-01-10T05:40:37;5.53;;;0.70;;
37787;SDS011;23627;53.302;-6.362;2024-01-10T05:43:02;5.00;;;0.90;;
37787;SDS011;23627;53.302;-6.362;2024-01-10T05:45:28;2.47;;;0.50;;
37787;SDS011;23627;53.302;-6.362;2024-01-10T05:47:54;2.80;;;0.50;;
37787;SDS011;23627;53.302;-6.362;2024-01-10T05:50:20;2.72;;;0.60;;
37787;SDS011;23627;53.302;-6.362;2024-01-10T05:52:49;3.17;;;0.40;;
37787;SDS011;23627;53.302;-6.362;2024-01-10T05:55:15;3.92;;;0.60;;
37787;SDS011;23627;53.302;-6.362;2024-01-10T05:57:40;2.35;;;0.52;;
37787;SDS011;23627;53.302;-6.362;2024-01-10T06:00:06;2.88;;;0.43;;
37787;SDS011;23627;53.302;-6.362;2024-01-10T06:02:36;2.80;;;0.50;;
37787;SDS011;23627;53.302;-6.362;2024-01-10T06:05:05;2.33;;;0.50;;
37787;SDS011;23627;53.302;-6.362;2024-01-10T06:07:31;3.80;;;0.43;;
37787;SDS011;23627;53.302;-6.362;2024-01-10T06:09:57;3.72;;;0.57;;
37787;SDS011;23627;53.302;-6.362;2024-01-10T06:12:23;5.03;;;0.47;;
37787;SDS011;23627;53.302;-6.362;2024-01-10T06:14:50;2.47;;;0.40;;
37787;SDS011;23627;53.302;-6.362;2024-01-10T06:17:16;4.38;;;0.40;;
37787;SDS011;23627;53.302;-6.362;2024-01-10T06:19:41;4.13;;;0.60;;
37787;SDS011;23627;53.302;-6.362;2024-01-10T06:22:07;3.08;;;0.73;;
37787;SDS011;23627;53.302;-6.362;2024-01-10T06:24:33;1.63;;;0.40;;
37787;SDS011;23627;53.302;-6.362;2024-01-10T06:26:58;1.58;;;0.30;;
37787;SDS011;23627;53.302;-6.362;2024-01-10T06:29:24;2.08;;;0.35;;
37787;SDS011;23627;53.302;-6.362;2024-01-10T06:31:50;1.75;;;0.30;;
37787;SDS011;23627;53.302;-6.362;2024-01-10T06:34:16;3.35;;;0.40;;
37787;SDS011;23627;53.302;-6.362;2024-01-10T06:36:41;2.53;;;0.40;;
37787;SDS011;23627;53.302;-6.362;2024-01-10T06:39:09;1.90;;;0.50;;
37787;SDS011;23627;53.302;-6.362;2024-01-10T06:41:38;1.73;;;0.40;;
37787;SDS011;23627;53.302;-6.362;2024-01-10T06:44:04;2.10;;;0.55;;
37787;SDS011;23627;53.302;-6.362;2024-01-10T06:46:30;2.75;;;0.70;;
37787;SDS011;23627;53.302;-6.362;2024-01-10T06:48:57;2.20;;;0.50;;
37787;SDS011;23627;53.302;-6.362;2024-01-10T06:51:24;2.60;;;0.52;;
37787;SDS011;23627;53.302;-6.362;2024-01-10T06:53:51;2.10;;;0.70;;
37787;SDS011;23627;53.302;-6.362;2024-01-10T06:56:28;1.25;;;0.35;;
37787;SDS011;23627;53.302;-6.362;2024-01-10T06:58:55;2.40;;;0.40;;
37787;SDS011;23627;53.302;-6.362;2024-01-10T07:01:20;1.98;;;0.40;;
37787;SDS011;23627;53.302;-6.362;2024-01-10T07:03:47;3.72;;;0.50;;
37787;SDS011;23627;53.302;-6.362;2024-01-10T07:06:13;1.73;;;0.30;;
37787;SDS011;23627;53.302;-6.362;2024-01-10T07:08:42;3.60;;;0.40;;
37787;SDS011;23627;53.302;-6.362;2024-01-10T07:11:09;1.70;;;0.30;;
37787;SDS011;23627;53.302;-6.362;2024-01-10T07:13:39;4.03;;;0.60;;
37787;SDS011;23627;53.302;-6.362;2024-01-10T07:16:05;1.85;;;0.40;;
37787;SDS011;23627;53.302;-6.362;2024-01-10T07:18:31;1.73;;;0.35;;
37787;SDS011;23627;53.302;-6.362;2024-01-10T07:21:00;1.83;;;0.30;;
37787;SDS011;23627;53.302;-6.362;2024-01-10T07:23:26;1.15;;;0.25;;
37787;SDS011;23627;53.302;-6.362;2024-01-10T07:25:52;1.95;;;0.32;;
37787;SDS011;23627;53.302;-6.362;2024-01-10T07:28:18;1.75;;;0.30;;
37787;SDS011;23627;53.302;-6.362;2024-01-10T07:30:45;1.70;;;0.30;;
37787;SDS011;23627;53.302;-6.362;2024-01-10T07:33:11;1.80;;;0.30;;
37787;SDS011;23627;53.302;-6.362;2024-01-10T07:35:37;2.72;;;0.40;;
37787;SDS011;23627;53.302;-6.362;2024-01-10T07:38:04;1.42;;;0.30;;
37787;SDS011;23627;53.302;-6.362;2024-01-10T07:40:32;4.03;;;0.40;;
37787;SDS011;23627;53.302;-6.362;2024-01-10T07:42:59;2.63;;;0.40;;
37787;SDS011;23627;53.302;-6.362;2024-01-10T07:45:25;1.13;;;0.30;;
37787;SDS011;23627;53.302;-6.362;2024-01-10T07:47:51;3.17;;;0.30;;
37787;SDS011;23627;53.302;-6.362;2024-01-10T07:50:16;1.52;;;0.30;;
37787;SDS011;23627;53.302;-6.362;2024-01-10T07:52:44;3.08;;;0.55;;
37787;SDS011;23627;53.302;-6.362;2024-01-10T07:55:13;1.67;;;0.43;;
37787;SDS011;23627;53.302;-6.362;2024-01-10T07:57:39;5.28;;;0.40;;
37787;SDS011;23627;53.302;-6.362;2024-01-10T08:00:07;3.10;;;0.50;;
37787;SDS011;23627;53.302;-6.362;2024-01-10T08:02:35;1.65;;;0.25;;
37787;SDS011;23627;53.302;-6.362;2024-01-10T08:05:05;1.77;;;0.28;;
37787;SDS011;23627;53.302;-6.362;2024-01-10T08:07:34;2.47;;;0.73;;
37787;SDS011;23627;53.302;-6.362;2024-01-10T08:10:03;1.50;;;0.43;;
37787;SDS011;23627;53.302;-6.362;2024-01-10T08:12:34;1.33;;;0.30;;
37787;SDS011;23627;53.302;-6.362;2024-01-10T08:15:00;3.55;;;0.50;;
37787;SDS011;23627;53.302;-6.362;2024-01-10T08:17:26;2.95;;;0.30;;
37787;SDS011;23627;53.302;-6.362;2024-01-10T08:19:52;4.07;;;0.40;;
37787;SDS011;23627;53.302;-6.362;2024-01-10T08:22:18;1.63;;;0.30;;
37787;SDS011;23627;53.302;-6.362;2024-01-10T08:24:45;3.10;;;0.40;;
37787;SDS011;23627;53.302;-6.362;2024-01-10T08:27:11;1.75;;;0.50;;
37787;SDS011;23627;53.302;-6.362;2024-01-10T08:29:37;2.13;;;0.20;;
37787;SDS011;23627;53.302;-6.362;2024-01-10T08:32:03;1.88;;;0.38;;
37787;SDS011;23627;53.302;-6.362;2024-01-10T08:34:29;2.33;;;0.38;;
37787;SDS011;23627;53.302;-6.362;2024-01-10T08:36:55;1.65;;;0.20;;
37787;SDS011;23627;53.302;-6.362;2024-01-10T08:39:21;2.65;;;0.30;;
37787;SDS011;23627;53.302;-6.362;2024-01-10T08:41:49;2.72;;;0.52;;
37787;SDS011;23627;53.302;-6.362;2024-01-10T08:44:15;3.80;;;0.40;;
37787;SDS011;23627;53.302;-6.362;2024-01-10T08:46:41;2.00;;;0.40;;
37787;SDS011;23627;53.302;-6.362;2024-01-10T08:49:06;4.07;;;0.50;;
37787;SDS011;23627;53.302;-6.362;2024-01-10T08:51:32;2.33;;;0.40;;
37787;SDS011;23627;53.302;-6.362;2024-01-10T08:53:58;2.05;;;0.38;;
37787;SDS011;23627;53.302;-6.362;2024-01-10T08:56:24;1.55;;;0.40;;
37787;SDS011;23627;53.302;-6.362;2024-01-10T08:58:51;1.52;;;0.40;;
37787;SDS011;23627;53.302;-6.362;2024-01-10T09:01:17;2.42;;;0.40;;
37787;SDS011;23627;53.302;-6.362;2024-01-10T09:03:44;2.15;;;0.55;;
37787;SDS011;23627;53.302;-6.362;2024-01-10T09:06:09;3.17;;;0.50;;
37787;SDS011;23627;53.302;-6.362;2024-01-10T09:08:35;1.65;;;0.40;;
37787;SDS011;23627;53.302;-6.362;2024-01-10T09:11:01;5.45;;;0.50;;
37787;SDS011;23627;53.302;-6.362;2024-01-10T09:13:27;1.50;;;0.47;;
37787;SDS011;23627;53.302;-6.362;2024-01-10T09:15:53;3.05;;;0.50;;
37787;SDS011;23627;53.302;-6.362;2024-01-10T09:18:19;1.85;;;0.30;;
37787;SDS011;23627;53.302;-6.362;2024-01-10T09:20:45;4.15;;;0.40;;
37787;SDS011;23627;53.302;-6.362;2024-01-10T09:23:10;0.98;;;0.40;;
37787;SDS011;23627;53.302;-6.362;2024-01-10T09:25:37;2.55;;;0.50;;
37787;SDS011;23627;53.302;-6.362;2024-01-10T09:28:06;1.00;;;0.40;;
37787;SDS011;23627;53.302;-6.362;2024-01-10T09:30:32;2.97;;;0.40;;
37787;SDS011;23627;53.302;-6.362;2024-01-10T09:32:59;1.88;;;0.40;;
37787;SDS011;23627;53.302;-6.362;2024-01-10T09:35:25;3.05;;;0.40;;
37787;SDS011;23627;53.302;-6.362;2024-01-10T09:37:51;2.92;;;0.30;;
37787;SDS011;23627;53.302;-6.362;2024-01-10T09:40:18;3.40;;;0.60;;
37787;SDS011;23627;53.302;-6.362;2024-01-10T09:42:47;1.20;;;0.10;;
37787;SDS011;23627;53.302;-6.362;2024-01-10T09:45:16;2.10;;;0.30;;
37787;SDS011;23627;53.302;-6.362;2024-01-10T09:47:44;1.27;;;0.40;;
37787;SDS011;23627;53.302;-6.362;2024-01-10T09:50:13;1.83;;;0.30;;
37787;SDS011;23627;53.302;-6.362;2024-01-10T09:52:41;1.90;;;0.30;;
37787;SDS011;23627;53.302;-6.362;2024-01-10T09:55:14;0.95;;;0.30;;
37787;SDS011;23627;53.302;-6.362;2024-01-10T09:57:41;2.45;;;0.40;;
37787;SDS011;23627;53.302;-6.362;2024-01-10T10:00:08;1.67;;;0.30;;
37787;SDS011;23627;53.302;-6.362;2024-01-10T10:02:37;2.08;;;0.40;;
37787;SDS011;23627;53.302;-6.362;2024-01-10T10:05:08;1.27;;;0.43;;
37787;SDS011;23627;53.302;-6.362;2024-01-10T10:07:48;1.95;;;0.40;;
37787;SDS011;23627;53.302;-6.362;2024-01-10T10:10:16;1.02;;;0.30;;
37787;SDS011;23627;53.302;-6.362;2024-01-10T10:12:43;2.85;;;0.50;;
37787;SDS011;23627;53.302;-6.362;2024-01-10T10:15:18;2.58;;;0.50;;
37787;SDS011;23627;53.302;-6.362;2024-01-10T10:17:49;1.35;;;0.30;;
37787;SDS011;23627;53.302;-6.362;2024-01-10T10:20:22;1.45;;;0.40;;
37787;SDS011;23627;53.302;-6.362;2024-01-10T10:22:58;1.85;;;0.50;;
37787;SDS011;23627;53.302;-6.362;2024-01-10T10:25:34;2.83;;;0.40;;
37787;SDS011;23627;53.302;-6.362;2024-01-10T10:28:03;0.95;;;0.40;;
37787;SDS011;23627;53.302;-6.362;2024-01-10T10:30:32;1.60;;;0.40;;
37787;SDS011;23627;53.302;-6.362;2024-01-10T10:32:59;2.50;;;0.60;;
37787;SDS011;23627;53.302;-6.362;2024-01-10T10:35:25;2.72;;;0.60;;
37787;SDS011;23627;53.302;-6.362;2024-01-10T10:37:51;1.63;;;0.30;;
37787;SDS011;23627;53.302;-6.362;2024-01-10T10:40:18;2.45;;;0.50;;
37787;SDS011;23627;53.302;-6.362;2024-01-10T10:42:48;0.98;;;0.40;;
37787;SDS011;23627;53.302;-6.362;2024-01-10T10:45:19;1.85;;;0.50;;
37787;SDS011;23627;53.302;-6.362;2024-01-10T10:47:50;1.60;;;0.30;;
37787;SDS011;23627;53.302;-6.362;2024-01-10T10:50:22;2.97;;;0.43;;
37787;SDS011;23627;53.302;-6.362;2024-01-10T10:52:49;1.63;;;0.25;;
37787;SDS011;23627;53.302;-6.362;2024-01-10T10:55:16;2.75;;;0.25;;
37787;SDS011;23627;53.302;-6.362;2024-01-10T10:57:46;0.98;;;0.30;;
37787;SDS011;23627;53.302;-6.362;2024-01-10T11:00:13;1.55;;;0.32;;
37787;SDS011;23627;53.302;-6.362;2024-01-10T11:02:41;2.03;;;0.50;;
37787;SDS011;23627;53.302;-6.362;2024-01-10T11:05:08;2.35;;;0.40;;
37787;SDS011;23627;53.302;-6.362;2024-01-10T11:07:35;3.70;;;0.60;;
37787;SDS011;23627;53.302;-6.362;2024-01-10T11:10:10;3.65;;;0.40;;
37787;SDS011;23627;53.302;-6.362;2024-01-10T11:20:36;1.55;;;0.20;;
37787;SDS011;23627;53.302;-6.362;2024-01-10T11:23:28;1.30;;;0.30;;
37787;SDS011;23627;53.302;-6.362;2024-01-10T11:26:06;1.45;;;0.30;;
37787;SDS011;23627;53.302;-6.362;2024-01-10T11:28:35;0.95;;;0.30;;
37787;SDS011;23627;53.302;-6.362;2024-01-10T11:31:02;0.65;;;0.20;;
37787;SDS011;23627;53.302;-6.362;2024-01-10T11:33:32;1.08;;;0.20;;
37787;SDS011;23627;53.302;-6.362;2024-01-10T11:36:12;1.48;;;0.17;;
37787;SDS011;23627;53.302;-6.362;2024-01-10T11:41:11;1.83;;;0.43;;
37787;SDS011;23627;53.302;-6.362;2024-01-10T11:43:40;3.22;;;0.60;;
37787;SDS011;23627;53.302;-6.362;2024-01-10T11:46:05;1.77;;;0.30;;
37787;SDS011;23627;53.302;-6.362;2024-01-10T11:48:32;1.27;;;0.20;;
37787;SDS011;23627;53.302;-6.362;2024-01-10T11:50:58;1.58;;;0.40;;
37787;SDS011;23627;53.302;-6.362;2024-01-10T11:53:43;1.73;;;0.30;;
37787;SDS011;23627;53.302;-6.362;2024-01-10T11:56:12;1.60;;;0.20;;
37787;SDS011;23627;53.302;-6.362;2024-01-10T12:01:21;1.30;;;0.30;;
37787;SDS011;23627;53.302;-6.362;2024-01-10T12:03:48;0.98;;;0.20;;
37787;SDS011;23627;53.302;-6.362;2024-01-10T12:06:23;1.00;;;0.30;;
37787;SDS011;23627;53.302;-6.362;2024-01-10T12:08:50;1.45;;;0.20;;
37787;SDS011;23627;53.302;-6.362;2024-01-10T12:11:16;2.45;;;0.30;;
37787;SDS011;23627;53.302;-6.362;2024-01-10T12:13:42;2.13;;;0.30;;
37787;SDS011;23627;53.302;-6.362;2024-01-10T12:16:09;2.00;;;0.43;;
37787;SDS011;23627;53.302;-6.362;2024-01-10T12:18:37;2.38;;;0.40;;
37787;SDS011;23627;53.302;-6.362;2024-01-10T12:21:03;3.65;;;0.38;;
37787;SDS011;23627;53.302;-6.362;2024-01-10T12:23:29;1.60;;;0.30;;
37787;SDS011;23627;53.302;-6.362;2024-01-10T12:25:57;2.10;;;0.30;;
37787;SDS011;23627;53.302;-6.362;2024-01-10T12:28:26;1.73;;;0.35;;
37787;SDS011;23627;53.302;-6.362;2024-01-10T12:30:52;1.58;;;0.40;;
37787;SDS011;23627;53.302;-6.362;2024-01-10T12:33:21;1.58;;;0.20;;
37787;SDS011;23627;53.302;-6.362;2024-01-10T12:38:32;1.30;;;0.30;;
37787;SDS011;23627;53.302;-6.362;2024-01-10T12:40:58;0.60;;;0.30;;
37787;SDS011;23627;53.302;-6.362;2024-01-10T12:43:25;1.08;;;0.22;;
37787;SDS011;23627;53.302;-6.362;2024-01-10T12:46:07;2.10;;;0.30;;
37787;SDS011;23627;53.302;-6.362;2024-01-10T12:48:41;1.05;;;0.35;;
37787;SDS011;23627;53.302;-6.362;2024-01-10T12:51:10;1.05;;;0.30;;
37787;SDS011;23627;53.302;-6.362;2024-01-10T12:53:37;0.88;;;0.30;;
37787;SDS011;23627;53.302;-6.362;2024-01-10T12:56:08;1.10;;;0.30;;
37787;SDS011;23627;53.302;-6.362;2024-01-10T12:58:40;2.28;;;0.45;;
37787;SDS011;23627;53.302;-6.362;2024-01-10T13:01:10;0.95;;;0.30;;
37787;SDS011;23627;53.302;-6.362;2024-01-10T13:03:37;0.70;;;0.30;;
37787;SDS011;23627;53.302;-6.362;2024-01-10T13:06:03;2.85;;;0.30;;
37787;SDS011;23627;53.302;-6.362;2024-01-10T13:08:30;1.17;;;0.40;;
37787;SDS011;23627;53.302;-6.362;2024-01-10T13:10:59;1.20;;;0.43;;
37787;SDS011;23627;53.302;-6.362;2024-01-10T13:13:29;3.22;;;0.40;;
37787;SDS011;23627;53.302;-6.362;2024-01-10T13:15:55;2.20;;;0.90;;
37787;SDS011;23627;53.302;-6.362;2024-01-10T13:18:21;0.70;;;0.25;;
37787;SDS011;23627;53.302;-6.362;2024-01-10T13:20:46;1.58;;;0.50;;
37787;SDS011;23627;53.302;-6.362;2024-01-10T13:23:12;1.85;;;0.50;;
37787;SDS011;23627;53.302;-6.362;2024-01-10T13:25:40;1.27;;;0.40;;
37787;SDS011;23627;53.302;-6.362;2024-01-10T13:28:06;3.10;;;0.40;;
37787;SDS011;23627;53.302;-6.362;2024-01-10T13:30:32;2.72;;;0.52;;
37787;SDS011;23627;53.302;-6.362;2024-01-10T13:32:58;2.15;;;0.28;;
37787;SDS011;23627;53.302;-6.362;2024-01-10T13:35:24;1.33;;;0.50;;
37787;SDS011;23627;53.302;-6.362;2024-01-10T13:37:50;1.92;;;0.30;;
37787;SDS011;23627;53.302;-6.362;2024-01-10T13:40:15;1.23;;;0.40;;
37787;SDS011;23627;53.302;-6.362;2024-01-10T13:42:42;1.50;;;0.30;;
37787;SDS011;23627;53.302;-6.362;2024-01-10T13:45:08;1.58;;;0.43;;
37787;SDS011;23627;53.302;-6.362;2024-01-10T13:47:38;1.80;;;0.20;;
37787;SDS011;23627;53.302;-6.362;2024-01-10T13:50:07;1.15;;;0.20;;
37787;SDS011;23627;53.302;-6.362;2024-01-10T13:52:34;1.08;;;0.30;;
37787;SDS011;23627;53.302;-6.362;2024-01-10T13:55:01;0.60;;;0.20;;
37787;SDS011;23627;53.302;-6.362;2024-01-10T13:57:30;2.08;;;0.30;;
37787;SDS011;23627;53.302;-6.362;2024-01-10T13:59:57;2.90;;;0.40;;
37787;SDS011;23627;53.302;-6.362;2024-01-10T14:02:26;3.00;;;0.38;;
37787;SDS011;23627;53.302;-6.362;2024-01-10T14:04:52;1.48;;;0.40;;
37787;SDS011;23627;53.302;-6.362;2024-01-10T14:07:31;2.15;;;0.55;;
37787;SDS011;23627;53.302;-6.362;2024-01-10T14:09:57;2.15;;;0.70;;
37787;SDS011;23627;53.302;-6.362;2024-01-10T14:12:23;1.67;;;0.60;;
37787;SDS011;23627;53.302;-6.362;2024-01-10T14:14:49;2.70;;;0.68;;
37787;SDS011;23627;53.302;-6.362;2024-01-10T14:17:15;4.60;;;0.70;;
37787;SDS011;23627;53.302;-6.362;2024-01-10T14:19:41;4.00;;;0.90;;
37787;SDS011;23627;53.302;-6.362;2024-01-10T14:22:08;4.50;;;1.23;;
37787;SDS011;23627;53.302;-6.362;2024-01-10T14:24:35;3.67;;;1.40;;
37787;SDS011;23627;53.302;-6.362;2024-01-10T14:27:00;3.13;;;1.55;;
37787;SDS011;23627;53.302;-6.362;2024-01-10T14:29:26;3.30;;;1.13;;
37787;SDS011;23627;53.302;-6.362;2024-01-10T14:31:52;3.85;;;1.50;;
37787;SDS011;23627;53.302;-6.362;2024-01-10T14:34:18;4.72;;;1.60;;
37787;SDS011;23627;53.302;-6.362;2024-01-10T14:36:43;5.47;;;1.75;;
37787;SDS011;23627;53.302;-6.362;2024-01-10T14:39:09;3.95;;;1.45;;
37787;SDS011;23627;53.302;-6.362;2024-01-10T14:41:40;3.00;;;1.30;;
37787;SDS011;23627;53.302;-6.362;2024-01-10T14:44:05;2.92;;;1.35;;
37787;SDS011;23627;53.302;-6.362;2024-01-10T14:46:32;3.42;;;1.20;;
37787;SDS011;23627;53.302;-6.362;2024-01-10T14:48:57;3.40;;;1.17;;